createdAt,value
2016-08-12T00:00:17.542Z,70.8
2016-08-12T00:00:41.687Z,71
2016-08-12T00:01:05.885Z,70.5
2016-08-12T00:01:30.024Z,70.6
2016-08-12T00:01:54.204Z,70.6
2016-08-12T00:02:18.322Z,71
2016-08-12T00:02:42.449Z,71.1
2016-08-12T00:03:06.642Z,70.8
2016-08-12T00:03:30.753Z,71
2016-08-12T00:03:54.876Z,70.9
2016-08-12T00:04:19.052Z,71.1
2016-08-12T00:04:43.170Z,70.5
2016-08-12T00:05:07.327Z,71
2016-08-12T00:05:31.449Z,70.6
2016-08-12T00:05:55.625Z,71
2016-08-12T00:06:19.786Z,70.7
2016-08-12T00:06:43.888Z,70.5
2016-08-12T00:07:08.034Z,70.9
2016-08-12T00:07:32.179Z,70.5
2016-08-12T00:07:56.299Z,70.9
2016-08-12T00:08:20.463Z,70.9
2016-08-12T00:08:44.811Z,70.6
2016-08-12T00:09:08.919Z,70.8
2016-08-12T00:09:33.047Z,71
2016-08-12T00:09:57.153Z,71.5
2016-08-12T00:10:21.264Z,71.2
2016-08-12T00:10:45.400Z,70.7
2016-08-12T00:11:09.534Z,70.8
2016-08-12T00:11:33.664Z,70.9
2016-08-12T00:11:57.805Z,70.8
2016-08-12T00:12:21.943Z,70.8
2016-08-12T00:12:46.071Z,70.9
2016-08-12T00:13:10.177Z,70.8
2016-08-12T00:13:34.311Z,70.8
2016-08-12T00:13:58.421Z,70.8
2016-08-12T00:14:22.552Z,71.1
2016-08-12T00:14:46.732Z,71.1
2016-08-12T00:15:10.862Z,71.1
2016-08-12T00:15:35.000Z,71
2016-08-12T00:15:59.157Z,70.8
2016-08-12T00:16:23.269Z,70.6
2016-08-12T00:16:47.399Z,71
2016-08-12T00:17:11.567Z,71.1
2016-08-12T00:17:35.719Z,70.8
2016-08-12T00:17:59.914Z,70.9
2016-08-12T00:18:24.078Z,70.8
2016-08-12T00:18:48.237Z,70.8
2016-08-12T00:19:12.376Z,71.4
2016-08-12T00:19:36.482Z,71.2
2016-08-12T00:20:00.599Z,71.2
2016-08-12T00:20:24.744Z,71.3
2016-08-12T00:20:48.931Z,71.3
2016-08-12T00:21:13.119Z,71.5
2016-08-12T00:21:37.250Z,71.5
2016-08-12T00:22:01.413Z,71.2
2016-08-12T00:22:25.539Z,71.3
2016-08-12T00:22:49.658Z,71.1
2016-08-12T00:23:13.781Z,71.1
2016-08-12T00:23:37.890Z,71.7
2016-08-12T00:24:02.011Z,71.5
2016-08-12T00:24:26.120Z,71.5
2016-08-12T00:24:50.229Z,71.7
2016-08-12T00:25:14.359Z,71.6
2016-08-12T00:25:38.465Z,71
2016-08-12T00:26:02.634Z,71
2016-08-12T00:26:26.747Z,70.9
2016-08-12T00:26:50.880Z,71.9
2016-08-12T00:27:14.985Z,71.8
2016-08-12T00:27:39.111Z,71.8
2016-08-12T00:28:03.271Z,71.5
2016-08-12T00:28:27.399Z,71.5
2016-08-12T00:28:51.523Z,71.2
2016-08-12T00:29:15.650Z,71.2
2016-08-12T00:29:39.820Z,71
2016-08-12T00:30:03.943Z,71.5
2016-08-12T00:30:28.112Z,71.4
2016-08-12T00:30:52.228Z,71.7
2016-08-12T00:31:16.367Z,71.1
2016-08-12T00:31:40.476Z,70.9
2016-08-12T00:32:04.618Z,70.9
2016-08-12T00:32:28.720Z,71.2
2016-08-12T00:32:52.835Z,71.2
2016-08-12T00:33:16.945Z,71.8
2016-08-12T00:33:41.081Z,71.8
2016-08-12T00:34:05.198Z,71.7
2016-08-12T00:34:29.361Z,71.5
2016-08-12T00:34:53.462Z,71.9
2016-08-12T00:35:17.590Z,71.7
2016-08-12T00:35:41.691Z,72.1
2016-08-12T00:36:05.814Z,71.9
2016-08-12T00:36:29.961Z,71.9
2016-08-12T00:36:54.067Z,72.1
2016-08-12T00:37:18.203Z,71.5
2016-08-12T00:37:42.315Z,72.3
2016-08-12T00:38:06.429Z,71.9
2016-08-12T00:38:30.567Z,72.3
2016-08-12T00:38:54.672Z,72.2
2016-08-12T00:39:18.784Z,72
2016-08-12T00:39:42.910Z,72.3
2016-08-12T00:40:07.028Z,72.1
2016-08-12T00:40:31.142Z,71.9
2016-08-12T00:40:55.244Z,72.8
2016-08-12T00:41:19.381Z,72.6
2016-08-12T00:41:43.497Z,72.7
2016-08-12T00:42:07.639Z,72.6
2016-08-12T00:42:31.793Z,72.4
2016-08-12T00:42:55.908Z,72.6
2016-08-12T00:43:20.032Z,72.3
2016-08-12T00:43:44.143Z,72.6
2016-08-12T00:44:08.257Z,72.6
2016-08-12T00:44:32.372Z,73.2
2016-08-12T00:44:56.528Z,72.4
2016-08-12T00:45:20.652Z,72.4
2016-08-12T00:45:44.757Z,72.6
2016-08-12T00:46:08.902Z,73.2
2016-08-12T00:46:33.041Z,72.8
2016-08-12T00:46:57.181Z,73.1
2016-08-12T00:47:21.307Z,72.9
2016-08-12T00:47:45.414Z,73.3
2016-08-12T00:48:09.528Z,72.7
2016-08-12T00:48:33.666Z,72.5
2016-08-12T00:48:57.807Z,72.6
2016-08-12T00:49:21.982Z,72
2016-08-12T00:49:46.091Z,72.5
2016-08-12T00:50:10.244Z,72.9
2016-08-12T00:50:34.346Z,72.6
2016-08-12T00:50:58.448Z,73
2016-08-12T00:51:22.591Z,72.6
2016-08-12T00:51:46.716Z,72.3
2016-08-12T00:52:10.840Z,72.3
2016-08-12T00:52:34.951Z,72.3
2016-08-12T00:52:59.087Z,72.5
2016-08-12T00:53:23.179Z,72.6
2016-08-12T00:53:47.332Z,72.7
2016-08-12T00:54:11.452Z,72.7
2016-08-12T00:54:35.567Z,72.8
2016-08-12T00:54:59.674Z,72.5
2016-08-12T00:55:23.821Z,72.5
2016-08-12T00:55:47.920Z,72.4
2016-08-12T00:56:12.080Z,72.6
2016-08-12T00:56:36.203Z,72.6
2016-08-12T00:57:00.329Z,73
2016-08-12T00:57:24.426Z,72.9
2016-08-12T00:57:48.533Z,73.2
2016-08-12T00:58:12.625Z,73
2016-08-12T00:58:36.741Z,73
2016-08-12T00:59:00.869Z,73.1
2016-08-12T00:59:24.994Z,72.8
2016-08-12T00:59:49.096Z,72.7
2016-08-12T01:00:13.204Z,73
2016-08-12T01:00:37.317Z,73
2016-08-12T01:01:01.428Z,73
2016-08-12T01:01:25.531Z,73
2016-08-12T01:01:49.636Z,72.7
2016-08-12T01:02:13.787Z,72.9
2016-08-12T01:02:37.905Z,73.2
2016-08-12T01:03:02.024Z,73.2
2016-08-12T01:03:26.163Z,73.1
2016-08-12T01:03:50.349Z,72.9
2016-08-12T01:04:14.519Z,72.6
2016-08-12T01:04:38.649Z,73.2
2016-08-12T01:05:02.775Z,72.9
2016-08-12T01:05:26.930Z,73.1
2016-08-12T01:05:51.099Z,73.1
2016-08-12T01:06:15.241Z,72.8
2016-08-12T01:06:39.354Z,72.8
2016-08-12T01:07:03.523Z,72.9
2016-08-12T01:07:27.608Z,72.9
2016-08-12T01:07:51.757Z,73.4
2016-08-12T01:08:15.888Z,72.8
2016-08-12T01:08:40.007Z,72.9
2016-08-12T01:09:04.123Z,73
2016-08-12T01:09:28.253Z,72.8
2016-08-12T01:09:52.445Z,73.8
2016-08-12T01:10:16.555Z,73.5
2016-08-12T01:10:40.698Z,73.1
2016-08-12T01:11:04.883Z,72.8
2016-08-12T01:11:29.008Z,73.2
2016-08-12T01:11:53.148Z,73.1
2016-08-12T01:12:17.269Z,73
2016-08-12T01:12:41.421Z,73.1
2016-08-12T01:13:05.558Z,72.7
2016-08-12T01:13:29.679Z,72.9
2016-08-12T01:13:53.858Z,73
2016-08-12T01:14:17.976Z,72.9
2016-08-12T01:14:42.138Z,73.1
2016-08-12T01:15:06.271Z,72.8
2016-08-12T01:15:30.474Z,72.7
2016-08-12T01:15:54.593Z,72.8
2016-08-12T01:16:18.719Z,73.1
2016-08-12T01:16:42.860Z,72.8
2016-08-12T01:17:06.966Z,72.7
2016-08-12T01:17:31.119Z,73.1
2016-08-12T01:17:55.204Z,73
2016-08-12T01:18:19.339Z,72.9
2016-08-12T01:18:43.454Z,72.8
2016-08-12T01:19:07.566Z,72.9
2016-08-12T01:19:31.695Z,73.1
2016-08-12T01:19:55.849Z,72.8
2016-08-12T01:20:19.958Z,73.2
2016-08-12T01:20:44.056Z,72.9
2016-08-12T01:21:08.162Z,73.2
2016-08-12T01:21:32.279Z,73.2
2016-08-12T01:21:56.419Z,73.1
2016-08-12T01:22:20.539Z,73.1
2016-08-12T01:22:44.668Z,73.6
2016-08-12T01:23:08.836Z,73.4
2016-08-12T01:23:32.978Z,73.6
2016-08-12T01:23:57.136Z,73.4
2016-08-12T01:24:21.247Z,73.1
2016-08-12T01:24:45.334Z,73.5
2016-08-12T01:25:09.472Z,73.9
2016-08-12T01:25:33.602Z,73.9
2016-08-12T01:25:57.773Z,73.9
2016-08-12T01:26:21.938Z,74.1
2016-08-12T01:26:46.061Z,73.5
2016-08-12T01:27:10.151Z,74
2016-08-12T01:27:34.265Z,74.1
2016-08-12T01:27:58.449Z,73.8
2016-08-12T01:28:22.595Z,73.9
2016-08-12T01:28:46.683Z,73.6
2016-08-12T01:29:10.787Z,73.6
2016-08-12T01:29:34.997Z,73.9
2016-08-12T01:29:59.168Z,73.9
2016-08-12T01:30:23.296Z,73.9
2016-08-12T01:30:47.416Z,73.7
2016-08-12T01:31:11.572Z,73.7
2016-08-12T01:31:35.714Z,74
2016-08-12T01:31:59.865Z,73.9
2016-08-12T01:32:23.962Z,73.8
2016-08-12T01:32:48.138Z,73.9
2016-08-12T01:33:12.248Z,73.8
2016-08-12T01:33:36.382Z,73.8
2016-08-12T01:34:00.481Z,73.8
2016-08-12T01:34:24.586Z,74
2016-08-12T01:34:48.746Z,73.6
2016-08-12T01:35:12.905Z,73.9
2016-08-12T01:35:37.096Z,73.8
2016-08-12T01:36:01.202Z,74.1
2016-08-12T01:36:25.353Z,73.7
2016-08-12T01:36:49.494Z,73.8
2016-08-12T01:37:13.599Z,73.7
2016-08-12T01:37:37.722Z,73.7
2016-08-12T01:38:01.903Z,73.4
2016-08-12T01:38:26.019Z,73.4
2016-08-12T01:38:50.115Z,73.5
2016-08-12T01:39:14.229Z,73.1
2016-08-12T01:39:38.354Z,73
2016-08-12T01:40:02.460Z,73.2
2016-08-12T01:40:26.576Z,72.9
2016-08-12T01:40:50.730Z,73
2016-08-12T01:41:14.867Z,72.6
2016-08-12T01:41:39.005Z,72.8
2016-08-12T01:42:03.110Z,72.3
2016-08-12T01:42:27.199Z,72.7
2016-08-12T01:42:51.322Z,72.3
2016-08-12T01:43:15.442Z,72.2
2016-08-12T01:43:39.550Z,72.3
2016-08-12T01:44:03.684Z,72.3
2016-08-12T01:44:27.841Z,71.9
2016-08-12T01:44:51.972Z,72.2
2016-08-12T01:45:16.098Z,72.2
2016-08-12T01:45:40.213Z,72.2
2016-08-12T01:46:04.399Z,72.1
2016-08-12T01:46:28.511Z,72.2
2016-08-12T01:46:52.617Z,72.1
2016-08-12T01:47:16.730Z,72.3
2016-08-12T01:47:40.881Z,72.2
2016-08-12T01:48:05.030Z,71.9
2016-08-12T01:48:29.199Z,72.1
2016-08-12T01:48:53.310Z,72.1
2016-08-12T01:49:17.467Z,72.2
2016-08-12T01:49:41.667Z,72.4
2016-08-12T01:50:05.800Z,72.4
2016-08-12T01:50:29.963Z,72.5
2016-08-12T01:50:54.096Z,72.5
2016-08-12T01:51:18.237Z,71.9
2016-08-12T01:51:42.371Z,72.4
2016-08-12T01:52:06.580Z,72.1
2016-08-12T01:52:30.746Z,72.1
2016-08-12T01:52:54.885Z,72.3
2016-08-12T01:53:19.002Z,71.9
2016-08-12T01:53:43.124Z,72.1
2016-08-12T01:54:07.225Z,71.9
2016-08-12T01:54:31.350Z,72.2
2016-08-12T01:54:55.471Z,72.2
2016-08-12T01:55:19.610Z,71.9
2016-08-12T01:55:43.712Z,72.3
2016-08-12T01:56:07.817Z,72.3
2016-08-12T01:56:31.939Z,72.1
2016-08-12T01:56:56.055Z,72.1
2016-08-12T01:57:20.168Z,72.1
2016-08-12T01:57:44.283Z,71.9
2016-08-12T01:58:08.371Z,72.2
2016-08-12T01:58:32.487Z,71.8
2016-08-12T01:58:56.591Z,71.9
2016-08-12T01:59:20.697Z,71.7
2016-08-12T01:59:44.791Z,72.1
2016-08-12T02:00:08.904Z,71.9
2016-08-12T02:00:33.065Z,71.7
2016-08-12T02:00:57.173Z,71.8
2016-08-12T02:01:21.290Z,71.7
2016-08-12T02:01:45.416Z,71.7
2016-08-12T02:02:09.590Z,71.9
2016-08-12T02:02:33.732Z,71.9
2016-08-12T02:02:57.864Z,71.6
2016-08-12T02:03:21.970Z,71.8
2016-08-12T02:03:46.120Z,71.7
2016-08-12T02:04:10.245Z,71.2
2016-08-12T02:04:34.368Z,71
2016-08-12T02:04:58.503Z,71.1
2016-08-12T02:05:22.637Z,71.2
2016-08-12T02:05:46.745Z,71.2
2016-08-12T02:06:10.874Z,71.2
2016-08-12T02:06:34.985Z,71
2016-08-12T02:06:59.148Z,71.8
2016-08-12T02:07:23.262Z,71
2016-08-12T02:07:47.439Z,71.2
2016-08-12T02:08:11.544Z,71.2
2016-08-12T02:08:35.700Z,71.2
2016-08-12T02:08:59.824Z,71.4
2016-08-12T02:09:23.951Z,71.2
2016-08-12T02:09:48.108Z,71
2016-08-12T02:10:12.266Z,71.1
2016-08-12T02:10:36.436Z,71.4
2016-08-12T02:11:00.545Z,71.2
2016-08-12T02:11:24.654Z,71.3
2016-08-12T02:11:48.803Z,71.3
2016-08-12T02:12:12.938Z,70.7
2016-08-12T02:12:37.038Z,71.6
2016-08-12T02:13:01.175Z,70.6
2016-08-12T02:13:25.334Z,70.9
2016-08-12T02:13:49.509Z,71.1
2016-08-12T02:14:13.640Z,70.6
2016-08-12T02:14:37.752Z,70.6
2016-08-12T02:15:01.866Z,70.6
2016-08-12T02:15:25.973Z,70.9
2016-08-12T02:15:50.095Z,70.7
2016-08-12T02:16:14.208Z,70.9
2016-08-12T02:16:38.338Z,70.7
2016-08-12T02:17:02.465Z,70.8
2016-08-12T02:17:26.610Z,70.9
2016-08-12T02:17:50.709Z,70.9
2016-08-12T02:18:14.874Z,71.2
2016-08-12T02:18:38.972Z,70.7
2016-08-12T02:19:03.105Z,71.3
2016-08-12T02:19:27.251Z,71.5
2016-08-12T02:19:51.364Z,71.3
2016-08-12T02:20:15.492Z,70.6
2016-08-12T02:20:39.652Z,71
2016-08-12T02:21:03.764Z,70.9
2016-08-12T02:21:27.868Z,70.9
2016-08-12T02:21:51.955Z,71.4
2016-08-12T02:22:16.054Z,71.4
2016-08-12T02:22:40.171Z,70.9
2016-08-12T02:23:04.273Z,70.6
2016-08-12T02:23:28.376Z,70.6
2016-08-12T02:23:52.520Z,70.3
2016-08-12T02:24:16.641Z,70.2
2016-08-12T02:24:40.768Z,70.6
2016-08-12T02:25:04.911Z,70.5
2016-08-12T02:25:29.056Z,70.4
2016-08-12T02:25:53.189Z,70.5
2016-08-12T02:26:17.371Z,71.1
2016-08-12T02:26:41.551Z,71.2
2016-08-12T02:27:05.670Z,71.1
2016-08-12T02:27:29.911Z,71
2016-08-12T02:27:54.006Z,70.8
2016-08-12T02:28:18.146Z,70.8
2016-08-12T02:28:42.297Z,70.8
2016-08-12T02:29:06.417Z,70.9
2016-08-12T02:29:30.566Z,70.8
2016-08-12T02:29:54.706Z,70.9
2016-08-12T02:30:18.832Z,70.7
2016-08-12T02:30:42.972Z,71.4
2016-08-12T02:31:07.148Z,71.3
2016-08-12T02:31:31.248Z,70.8
2016-08-12T02:31:55.403Z,70.8
2016-08-12T02:32:19.521Z,71.2
2016-08-12T02:32:43.725Z,71.5
2016-08-12T02:33:07.823Z,71.2
2016-08-12T02:33:31.954Z,71.4
2016-08-12T02:33:56.055Z,71.2
2016-08-12T02:34:20.164Z,71.2
2016-08-12T02:34:44.285Z,71.2
2016-08-12T02:35:08.413Z,71
2016-08-12T02:35:32.521Z,71.3
2016-08-12T02:35:56.626Z,71.2
2016-08-12T02:36:20.763Z,71.9
2016-08-12T02:36:44.888Z,71.7
2016-08-12T02:37:08.979Z,72
2016-08-12T02:37:33.145Z,72
2016-08-12T02:37:57.250Z,72.1
2016-08-12T02:38:21.398Z,71.9
2016-08-12T02:38:45.504Z,71.9
2016-08-12T02:39:09.622Z,72
2016-08-12T02:39:33.736Z,71.9
2016-08-12T02:39:57.841Z,72
2016-08-12T02:40:21.953Z,72.1
2016-08-12T02:40:46.069Z,71.7
2016-08-12T02:41:10.206Z,71.7
2016-08-12T02:41:34.310Z,71.8
2016-08-12T02:41:58.419Z,71.6
2016-08-12T02:42:22.532Z,71.6
2016-08-12T02:42:46.666Z,71.7
2016-08-12T02:43:10.796Z,71.7
2016-08-12T02:43:34.910Z,71.6
2016-08-12T02:43:59.051Z,71.6
2016-08-12T02:44:23.166Z,71.7
2016-08-12T02:44:47.282Z,71.6
2016-08-12T02:45:11.407Z,71.6
2016-08-12T02:45:35.558Z,71.9
2016-08-12T02:45:59.659Z,71.5
2016-08-12T02:46:23.767Z,71.4
2016-08-12T02:46:47.910Z,71.6
2016-08-12T02:47:12.014Z,71.4
2016-08-12T02:47:36.125Z,71.4
2016-08-12T02:48:00.260Z,71.4
2016-08-12T02:48:24.388Z,71.4
2016-08-12T02:48:48.514Z,71.4
2016-08-12T02:49:12.626Z,71.4
2016-08-12T02:49:36.748Z,71.4
2016-08-12T02:50:00.845Z,71.7
2016-08-12T02:50:24.951Z,71.6
2016-08-12T02:50:49.049Z,71.4
2016-08-12T02:51:13.154Z,71.4
2016-08-12T02:51:37.373Z,71.4
2016-08-12T02:52:01.502Z,71.4
2016-08-12T02:52:25.623Z,71.4
2016-08-12T02:52:50.549Z,71.2
2016-08-12T02:53:14.671Z,71.2
2016-08-12T02:53:38.769Z,71.4
2016-08-12T02:54:02.885Z,71.7
2016-08-12T02:54:26.992Z,71.2
2016-08-12T02:54:51.101Z,71
2016-08-12T02:55:15.216Z,71.2
2016-08-12T02:55:39.339Z,71.2
2016-08-12T02:56:03.455Z,71.3
2016-08-12T02:56:27.559Z,71
2016-08-12T02:56:51.667Z,71
2016-08-12T02:57:15.792Z,71
2016-08-12T02:57:39.972Z,71
2016-08-12T02:58:04.102Z,71.2
2016-08-12T02:58:28.221Z,71.4
2016-08-12T02:58:52.349Z,71.1
2016-08-12T02:59:16.453Z,71.3
2016-08-12T02:59:40.598Z,71.4
2016-08-12T03:00:04.699Z,71.3
2016-08-12T03:00:28.821Z,71
2016-08-12T03:00:52.938Z,70.8
2016-08-12T03:01:17.063Z,71.4
2016-08-12T03:01:41.186Z,71.3
2016-08-12T03:02:05.336Z,71.3
2016-08-12T03:02:29.450Z,71.2
2016-08-12T03:02:53.580Z,71.2
2016-08-12T03:03:17.751Z,71.4
2016-08-12T03:03:41.853Z,71.4
2016-08-12T03:04:05.990Z,71.6
2016-08-12T03:04:30.160Z,71.2
2016-08-12T03:04:54.306Z,71.2
2016-08-12T03:05:18.427Z,71.7
2016-08-12T03:05:42.554Z,71.4
2016-08-12T03:06:06.756Z,71.2
2016-08-12T03:06:30.886Z,71
2016-08-12T03:06:54.982Z,71.6
2016-08-12T03:07:19.108Z,71.7
2016-08-12T03:07:43.258Z,71.4
2016-08-12T03:08:07.375Z,71.7
2016-08-12T03:08:31.525Z,71.7
2016-08-12T03:08:55.661Z,72.1
2016-08-12T03:09:19.789Z,72.1
2016-08-12T03:09:43.905Z,72
2016-08-12T03:10:08.018Z,72.4
2016-08-12T03:10:32.103Z,72.7
2016-08-12T03:10:56.211Z,72.9
2016-08-12T03:11:20.317Z,72.9
2016-08-12T03:11:44.451Z,73
2016-08-12T03:12:08.549Z,73.5
2016-08-12T03:12:32.675Z,73.4
2016-08-12T03:12:56.798Z,73.8
2016-08-12T03:13:20.900Z,73.7
2016-08-12T03:13:45.011Z,73.7
2016-08-12T03:14:09.104Z,73.4
2016-08-12T03:14:33.242Z,73.7
2016-08-12T03:14:57.373Z,73.1
2016-08-12T03:15:21.496Z,73.1
2016-08-12T03:15:45.602Z,73.6
2016-08-12T03:16:09.736Z,73.8
2016-08-12T03:16:33.853Z,73.4
2016-08-12T03:16:57.971Z,73.8
2016-08-12T03:17:22.079Z,74
2016-08-12T03:17:46.189Z,73.4
2016-08-12T03:18:10.318Z,73.6
2016-08-12T03:18:34.502Z,73.8
2016-08-12T03:18:58.671Z,73.9
2016-08-12T03:19:22.780Z,73.6
2016-08-12T03:19:46.937Z,74.4
2016-08-12T03:20:11.049Z,74.5
2016-08-12T03:20:35.150Z,74.6
2016-08-12T03:20:59.275Z,74.1
2016-08-12T03:21:23.419Z,73.7
2016-08-12T03:21:47.536Z,73.5
2016-08-12T03:22:11.649Z,73.9
2016-08-12T03:22:35.803Z,73.7
2016-08-12T03:22:59.942Z,73.9
2016-08-12T03:23:24.110Z,74.1
2016-08-12T03:23:48.267Z,73.9
2016-08-12T03:24:12.475Z,74
2016-08-12T03:24:36.593Z,74.6
2016-08-12T03:25:00.759Z,74.1
2016-08-12T03:25:24.912Z,74.4
2016-08-12T03:25:49.107Z,74.8
2016-08-12T03:26:13.291Z,74
2016-08-12T03:26:37.404Z,73.9
2016-08-12T03:27:01.518Z,73.6
2016-08-12T03:27:25.652Z,73.7
2016-08-12T03:27:49.775Z,73.4
2016-08-12T03:28:13.907Z,73.7
2016-08-12T03:28:38.037Z,73.8
2016-08-12T03:29:02.162Z,73.9
2016-08-12T03:29:26.277Z,73.7
2016-08-12T03:29:50.432Z,73.8
2016-08-12T03:30:14.561Z,73.8
2016-08-12T03:30:38.702Z,73.5
2016-08-12T03:31:02.835Z,73.7
2016-08-12T03:31:26.939Z,73.5
2016-08-12T03:31:51.100Z,73.5
2016-08-12T03:32:15.197Z,73.5
2016-08-12T03:32:39.328Z,73.4
2016-08-12T03:33:03.455Z,73.6
2016-08-12T03:33:27.591Z,73.8
2016-08-12T03:33:51.771Z,73.6
2016-08-12T03:34:15.916Z,73.9
2016-08-12T03:34:40.030Z,73.9
2016-08-12T03:35:04.149Z,73.7
2016-08-12T03:35:28.272Z,74
2016-08-12T03:35:52.357Z,73.8
2016-08-12T03:36:16.547Z,73.5
2016-08-12T03:36:40.672Z,73.6
2016-08-12T03:37:04.831Z,73.8
2016-08-12T03:37:28.928Z,73.9
2016-08-12T03:37:53.055Z,74
2016-08-12T03:38:17.206Z,73.6
2016-08-12T03:38:41.323Z,73.5
2016-08-12T03:39:05.421Z,74
2016-08-12T03:39:29.587Z,74
2016-08-12T03:39:53.715Z,73.9
2016-08-12T03:40:17.858Z,73.8
2016-08-12T03:40:41.950Z,73.4
2016-08-12T03:41:06.169Z,73.7
2016-08-12T03:41:30.337Z,73.4
2016-08-12T03:41:54.467Z,73.6
2016-08-12T03:42:18.817Z,73.7
2016-08-12T03:42:42.962Z,73.8
2016-08-12T03:43:07.146Z,74
2016-08-12T03:43:31.325Z,74.5
2016-08-12T03:43:55.445Z,74.1
2016-08-12T03:44:19.561Z,74.2
2016-08-12T03:44:43.672Z,74.5
2016-08-12T03:45:07.787Z,74.5
2016-08-12T03:45:31.910Z,74.7
2016-08-12T03:45:56.099Z,74.5
2016-08-12T03:46:20.235Z,74.3
2016-08-12T03:46:44.357Z,74.3
2016-08-12T03:47:08.539Z,74.5
2016-08-12T03:47:32.687Z,74.5
2016-08-12T03:47:56.799Z,74.8
2016-08-12T03:48:20.918Z,74.4
2016-08-12T03:48:45.041Z,74.5
2016-08-12T03:49:09.157Z,74.5
2016-08-12T03:49:33.274Z,75
2016-08-12T03:49:57.602Z,74.9
2016-08-12T03:50:22.250Z,75.2
2016-08-12T03:50:47.435Z,75
2016-08-12T03:51:12.610Z,75
2016-08-12T03:51:36.720Z,75.1
2016-08-12T03:52:00.866Z,74.4
2016-08-12T03:52:24.991Z,74.6
2016-08-12T03:52:49.117Z,74.7
2016-08-12T03:53:13.264Z,75.1
2016-08-12T03:53:37.400Z,75
2016-08-12T03:54:01.563Z,75.4
2016-08-12T03:54:25.684Z,75
2016-08-12T03:54:49.794Z,74.9
2016-08-12T03:55:13.917Z,75.3
2016-08-12T03:55:38.076Z,75.3
2016-08-12T03:56:02.184Z,75.2
2016-08-12T03:56:26.349Z,74.5
2016-08-12T03:56:50.481Z,75.3
2016-08-12T03:57:14.598Z,75.7
2016-08-12T03:57:38.766Z,75.8
2016-08-12T03:58:02.917Z,75.7
2016-08-12T03:58:27.049Z,75.4
2016-08-12T03:58:51.169Z,75.3
2016-08-12T03:59:15.315Z,75.2
2016-08-12T03:59:39.446Z,74.9
2016-08-12T04:00:03.639Z,75.1
2016-08-12T04:00:27.832Z,75.1
2016-08-12T04:00:51.975Z,74.7
2016-08-12T04:01:16.151Z,75.3
2016-08-12T04:01:40.303Z,75.6
2016-08-12T04:02:04.428Z,75.5
2016-08-12T04:02:28.556Z,75.3
2016-08-12T04:02:52.672Z,75.3
2016-08-12T04:03:16.804Z,75.4
2016-08-12T04:03:40.950Z,75.1
2016-08-12T04:04:05.072Z,75.2
2016-08-12T04:04:29.176Z,74.9
2016-08-12T04:04:53.296Z,74.9
2016-08-12T04:05:17.407Z,74.9
2016-08-12T04:05:41.510Z,75.3
2016-08-12T04:06:05.714Z,75
2016-08-12T04:06:29.865Z,75.3
2016-08-12T04:06:53.993Z,74.9
2016-08-12T04:07:18.127Z,75.2
2016-08-12T04:07:42.282Z,75.4
2016-08-12T04:08:06.172Z,75.2
2016-08-12T04:08:30.285Z,75.2
2016-08-12T04:08:54.402Z,75.4
2016-08-12T04:09:18.544Z,75.2
2016-08-12T04:09:42.669Z,75.5
2016-08-12T04:10:06.801Z,75.4
2016-08-12T04:10:30.961Z,75.3
2016-08-12T04:10:55.076Z,75.2
2016-08-12T04:11:19.190Z,75.3
2016-08-12T04:11:43.336Z,75.3
2016-08-12T04:12:07.464Z,75.2
2016-08-12T04:12:31.573Z,75.3
2016-08-12T04:12:55.696Z,74.6
2016-08-12T04:13:19.816Z,74.7
2016-08-12T04:13:43.953Z,74.6
2016-08-12T04:14:08.070Z,74.6
2016-08-12T04:14:32.183Z,74.4
2016-08-12T04:14:56.298Z,74.5
2016-08-12T04:15:20.417Z,74.6
2016-08-12T04:15:44.529Z,74.8
2016-08-12T04:16:08.657Z,74.5
2016-08-12T04:16:32.801Z,74.8
2016-08-12T04:16:56.977Z,74.8
2016-08-12T04:17:21.094Z,74.6
2016-08-12T04:17:45.214Z,74.6
2016-08-12T04:18:09.358Z,75.4
2016-08-12T04:18:33.471Z,74.9
2016-08-12T04:18:57.592Z,75.3
2016-08-12T04:19:21.763Z,75.4
2016-08-12T04:19:45.875Z,74.6
2016-08-12T04:20:10.005Z,75.4
2016-08-12T04:20:34.127Z,74.4
2016-08-12T04:20:58.217Z,75.2
2016-08-12T04:21:22.332Z,75.2
2016-08-12T04:21:46.446Z,75.2
2016-08-12T04:22:10.568Z,74.7
2016-08-12T04:22:34.677Z,75
2016-08-12T04:22:58.791Z,75
2016-08-12T04:23:22.892Z,75.3
2016-08-12T04:23:47.012Z,75.1
2016-08-12T04:24:11.146Z,75.2
2016-08-12T04:24:35.291Z,74.4
2016-08-12T04:24:59.416Z,74.8
2016-08-12T04:25:23.568Z,74.8
2016-08-12T04:25:47.709Z,74.3
2016-08-12T04:26:11.822Z,74.2
2016-08-12T04:26:35.933Z,74.4
2016-08-12T04:27:00.067Z,74.3
2016-08-12T04:27:24.204Z,74.2
2016-08-12T04:27:48.398Z,74.3
2016-08-12T04:28:12.541Z,74.4
2016-08-12T04:28:36.674Z,74.4
2016-08-12T04:29:00.817Z,74.4
2016-08-12T04:29:24.956Z,74.5
2016-08-12T04:29:49.069Z,74.4
2016-08-12T04:30:13.210Z,74.1
2016-08-12T04:30:37.341Z,74.2
2016-08-12T04:31:01.497Z,74.5
2016-08-12T04:31:25.710Z,74.5
2016-08-12T04:31:49.820Z,74.5
2016-08-12T04:32:13.959Z,74.6
2016-08-12T04:32:38.676Z,74.4
2016-08-12T04:33:02.824Z,74.6
2016-08-12T04:33:26.980Z,74.8
2016-08-12T04:33:51.127Z,74.5
2016-08-12T04:34:15.330Z,74.4
2016-08-12T04:34:39.481Z,74.3
2016-08-12T04:35:03.638Z,73.7
2016-08-12T04:35:27.738Z,73.7
2016-08-12T04:35:51.890Z,73.9
2016-08-12T04:36:16.006Z,73.5
2016-08-12T04:36:40.160Z,73.6
2016-08-12T04:37:04.282Z,73.5
2016-08-12T04:37:28.421Z,73.7
2016-08-12T04:37:52.579Z,73.6
2016-08-12T04:38:16.781Z,73.8
2016-08-12T04:38:40.931Z,73.8
2016-08-12T04:39:05.053Z,74
2016-08-12T04:39:29.199Z,73.5
2016-08-12T04:39:53.388Z,74
2016-08-12T04:40:17.498Z,74.1
2016-08-12T04:40:41.629Z,74.1
2016-08-12T04:41:05.775Z,74
2016-08-12T04:41:29.895Z,74.1
2016-08-12T04:41:54.037Z,73.8
2016-08-12T04:42:18.206Z,73.6
2016-08-12T04:42:42.307Z,73.8
2016-08-12T04:43:06.443Z,73.7
2016-08-12T04:43:30.613Z,73.4
2016-08-12T04:43:54.748Z,73.3
2016-08-12T04:44:18.962Z,73.4
2016-08-12T04:44:43.116Z,73.2
2016-08-12T04:45:07.246Z,73.5
2016-08-12T04:45:31.365Z,73.8
2016-08-12T04:45:55.499Z,73.5
2016-08-12T04:46:19.646Z,73.7
2016-08-12T04:46:43.794Z,73.3
2016-08-12T04:47:07.954Z,73.3
2016-08-12T04:47:32.085Z,73.5
2016-08-12T04:47:56.204Z,73.3
2016-08-12T04:48:20.318Z,73.8
2016-08-12T04:48:44.468Z,73.7
2016-08-12T04:49:08.606Z,73.2
2016-08-12T04:49:32.830Z,72.5
2016-08-12T04:49:57.010Z,73
2016-08-12T04:50:21.133Z,73.2
2016-08-12T04:50:45.320Z,72.9
2016-08-12T04:51:09.432Z,73.1
2016-08-12T04:51:33.502Z,73.2
2016-08-12T04:51:57.620Z,73.4
2016-08-12T04:52:21.729Z,72.9
2016-08-12T04:52:45.841Z,73
2016-08-12T04:53:09.976Z,73.1
2016-08-12T04:53:34.124Z,73
2016-08-12T04:53:58.296Z,73.5
2016-08-12T04:54:22.420Z,73.1
2016-08-12T04:54:46.617Z,73.2
2016-08-12T04:55:10.751Z,73.1
2016-08-12T04:55:34.892Z,73.1
2016-08-12T04:55:59.023Z,73.2
2016-08-12T04:56:23.229Z,73.2
2016-08-12T04:56:47.389Z,73.3
2016-08-12T04:57:11.527Z,73.3
2016-08-12T04:57:35.670Z,73
2016-08-12T04:57:59.820Z,73.2
2016-08-12T04:58:23.987Z,73.5
2016-08-12T04:58:48.137Z,73
2016-08-12T04:59:12.330Z,73.2
2016-08-12T04:59:36.532Z,73
2016-08-12T05:00:00.694Z,73.2
2016-08-12T05:00:24.869Z,73.2
2016-08-12T05:00:49.012Z,72.9
2016-08-12T05:01:13.136Z,73
2016-08-12T05:01:37.276Z,73.2
2016-08-12T05:02:01.476Z,73.1
2016-08-12T05:02:25.597Z,73
2016-08-12T05:02:49.728Z,73.2
2016-08-12T05:03:13.891Z,72.9
2016-08-12T05:03:38.002Z,73
2016-08-12T05:04:03.046Z,73.7
2016-08-12T05:04:27.162Z,73.2
2016-08-12T05:04:51.288Z,73.1
2016-08-12T05:05:15.489Z,73.7
2016-08-12T05:05:39.698Z,73.5
2016-08-12T05:06:03.882Z,73.6
2016-08-12T05:06:28.096Z,73.2
2016-08-12T05:06:52.275Z,72.6
2016-08-12T05:07:16.420Z,73.2
2016-08-12T05:07:40.563Z,73.2
2016-08-12T05:08:04.691Z,73.1
2016-08-12T05:08:28.803Z,73
2016-08-12T05:08:52.933Z,73.2
2016-08-12T05:09:17.061Z,72.6
2016-08-12T05:09:41.196Z,73.8
2016-08-12T05:10:05.360Z,73.2
2016-08-12T05:10:29.487Z,73.2
2016-08-12T05:10:53.637Z,73.5
2016-08-12T05:11:17.803Z,73.3
2016-08-12T05:11:41.926Z,73.2
2016-08-12T05:12:06.042Z,73.2
2016-08-12T05:12:30.180Z,73.2
2016-08-12T05:12:54.391Z,73.5
2016-08-12T05:13:18.517Z,73.8
2016-08-12T05:13:42.641Z,73.8
2016-08-12T05:14:06.819Z,73.7
2016-08-12T05:14:30.998Z,73.9
2016-08-12T05:14:55.130Z,73.2
2016-08-12T05:15:19.279Z,73.7
2016-08-12T05:15:43.423Z,74
2016-08-12T05:16:07.562Z,73.9
2016-08-12T05:16:31.708Z,74.2
2016-08-12T05:16:55.858Z,73.9
2016-08-12T05:17:19.975Z,73.7
2016-08-12T05:17:44.119Z,74
2016-08-12T05:18:08.262Z,74.1
2016-08-12T05:18:32.416Z,74
2016-08-12T05:18:56.519Z,74
2016-08-12T05:19:20.703Z,73.8
2016-08-12T05:19:44.849Z,73.9
2016-08-12T05:20:08.977Z,73.9
2016-08-12T05:20:33.133Z,73.4
2016-08-12T05:20:57.272Z,73.2
2016-08-12T05:21:21.417Z,73.5
2016-08-12T05:21:45.540Z,73.2
2016-08-12T05:22:09.689Z,73.3
2016-08-12T05:22:33.793Z,73.6
2016-08-12T05:22:57.978Z,73.4
2016-08-12T05:23:22.108Z,73.4
2016-08-12T05:23:46.281Z,73.7